createdAt,value
2019-05-25T00:00:23.427Z,67.12
2019-05-25T00:02:53.573Z,66.85
2019-05-25T00:05:23.672Z,66.50
2019-05-25T00:07:53.800Z,65.96
2019-05-25T00:10:24.019Z,65.79
2019-05-25T00:12:54.166Z,65.98
2019-05-25T00:15:24.281Z,65.64
2019-05-25T00:17:54.403Z,65.87
2019-05-25T00:20:24.606Z,65.52
2019-05-25T00:22:55.850Z,67.04
2019-05-25T00:25:25.971Z,66.89
2019-05-25T00:27:56.098Z,66.26
2019-05-25T00:30:26.293Z,66.38
2019-05-25T00:35:33.013Z,66.51
2019-05-25T00:38:03.158Z,66.10
2019-05-25T00:40:33.287Z,66.20
2019-05-25T00:43:03.412Z,66.34
2019-05-25T00:45:33.554Z,66.31
2019-05-25T00:48:03.766Z,66.88
2019-05-25T00:50:33.886Z,65.99
2019-05-25T00:53:04.055Z,66.33
2019-05-25T00:55:34.183Z,65.70
2019-05-25T00:58:04.522Z,66.38
2019-05-25T01:00:34.742Z,66.54
2019-05-25T01:03:05.139Z,66.22
2019-05-25T01:05:35.266Z,66.35
2019-05-25T01:08:05.410Z,66.77
2019-05-25T01:10:35.521Z,66.35
2019-05-25T01:13:05.652Z,66.12
2019-05-25T01:15:35.786Z,66.23
2019-05-25T01:18:05.924Z,66.68
2019-05-25T01:20:36.148Z,65.94
2019-05-25T01:23:06.436Z,66.19
2019-05-25T01:25:36.566Z,65.91
2019-05-25T01:28:06.710Z,66.15
2019-05-25T01:30:36.824Z,66.54
2019-05-25T01:33:06.964Z,66.30
2019-05-25T01:35:37.084Z,66.42
2019-05-25T01:38:07.232Z,65.95
2019-05-25T01:40:37.346Z,65.76
2019-05-25T01:43:07.482Z,65.18
2019-05-25T01:45:37.632Z,65.84
2019-05-25T01:48:07.798Z,66.39
2019-05-25T01:50:37.924Z,66.80
2019-05-25T01:53:08.074Z,66.22
2019-05-25T01:55:38.207Z,66.64
2019-05-25T01:58:08.338Z,65.91
2019-05-25T02:00:38.459Z,65.47
2019-05-25T02:03:08.608Z,65.45
2019-05-25T02:05:38.710Z,64.61
2019-05-25T02:08:08.865Z,65.55
2019-05-25T02:10:38.988Z,64.63
2019-05-25T02:13:09.140Z,64.32
2019-05-25T02:15:39.263Z,64.78
2019-05-25T02:18:09.399Z,65.05
2019-05-25T02:20:39.533Z,64.56
2019-05-25T02:23:09.694Z,65.99
2019-05-25T02:25:39.824Z,65.11
2019-05-25T02:28:09.946Z,65.40
2019-05-25T02:30:40.056Z,67.16
2019-05-25T02:33:10.268Z,67.00
2019-05-25T02:35:40.386Z,66.25
2019-05-25T02:38:10.796Z,65.34
2019-05-25T02:40:40.938Z,64.56
2019-05-25T02:43:11.363Z,64.14
2019-05-25T02:45:41.478Z,64.93
2019-05-25T02:48:12.637Z,64.50
2019-05-25T02:50:42.763Z,65.57
2019-05-25T02:53:12.886Z,65.24
2019-05-25T02:55:43.010Z,64.71
2019-05-25T02:58:13.154Z,64.66
2019-05-25T03:00:43.378Z,64.56
2019-05-25T03:03:13.555Z,64.39
2019-05-25T03:05:43.909Z,63.87
2019-05-25T03:08:14.025Z,63.94
2019-05-25T03:10:45.909Z,63.56
2019-05-25T03:13:16.750Z,63.05
2019-05-25T03:15:46.880Z,63.61
2019-05-25T03:18:17.055Z,63.23
2019-05-25T03:20:47.176Z,63.30
2019-05-25T03:23:17.322Z,63.27
2019-05-25T03:25:49.890Z,63.98
2019-05-25T03:28:19.451Z,63.78
2019-05-25T03:30:50.629Z,62.83
2019-05-25T03:33:20.847Z,62.27
2019-05-25T03:35:50.965Z,63.74
2019-05-25T03:38:21.184Z,62.91
2019-05-25T03:40:51.313Z,63.42
2019-05-25T03:43:21.452Z,64.91
2019-05-25T03:45:51.585Z,64.16
2019-05-25T03:48:21.928Z,64.15
2019-05-25T03:50:52.072Z,63.67
2019-05-25T03:53:22.206Z,63.92
2019-05-25T03:56:04.763Z,62.86
2019-05-25T03:58:25.237Z,63.18
2019-05-25T04:00:55.344Z,64.41
2019-05-25T04:03:25.466Z,64.29
2019-05-25T04:05:55.600Z,63.80
2019-05-25T04:08:25.734Z,63.95
2019-05-25T04:10:55.862Z,63.37
2019-05-25T04:13:25.994Z,63.68
2019-05-25T04:15:56.106Z,63.20
2019-05-25T04:18:26.228Z,62.93
2019-05-25T04:20:56.359Z,63.66
2019-05-25T04:23:26.496Z,63.66
2019-05-25T04:25:56.606Z,62.18
2019-05-25T04:28:26.852Z,62.64
2019-05-25T04:30:56.975Z,63.04
2019-05-25T04:33:27.415Z,63.18
2019-05-25T04:35:57.529Z,62.85
2019-05-25T04:38:27.654Z,63.51
2019-05-25T04:40:57.766Z,63.61
2019-05-25T04:43:27.901Z,63.05
2019-05-25T04:45:58.018Z,62.67
2019-05-25T04:48:28.313Z,62.83
2019-05-25T04:50:58.461Z,62.41
2019-05-25T04:53:28.591Z,62.85
2019-05-25T04:55:58.812Z,62.29
2019-05-25T04:58:28.970Z,63.31
2019-05-25T05:00:59.101Z,62.85
2019-05-25T05:03:30.604Z,61.79
2019-05-25T05:06:01.361Z,61.93
2019-05-25T05:08:34.967Z,62.03
2019-05-25T05:11:03.365Z,62.07
2019-05-25T05:13:33.493Z,61.86
2019-05-25T05:16:03.621Z,62.12
2019-05-25T05:18:33.784Z,62.65
2019-05-25T05:21:03.942Z,62.87
2019-05-25T05:23:34.079Z,63.82
2019-05-25T05:26:04.330Z,63.14
2019-05-25T05:28:34.466Z,63.09
2019-05-25T05:31:05.591Z,62.25
2019-05-25T05:33:35.796Z,61.46
2019-05-25T05:36:06.085Z,60.22
2019-05-25T05:38:37.534Z,60.09
2019-05-25T05:41:09.260Z,60.95
2019-05-25T05:43:39.897Z,61.55
2019-05-25T05:46:12.296Z,60.73
2019-05-25T05:48:45.664Z,60.73
2019-05-25T05:51:18.695Z,60.36
2019-05-25T05:53:53.078Z,60.85
2019-05-25T05:56:24.590Z,60.85
2019-05-25T05:58:54.767Z,60.39
2019-05-25T06:01:24.942Z,60.67
2019-05-25T06:03:55.100Z,60.14
2019-05-25T06:06:25.221Z,59.48
2019-05-25T06:08:55.364Z,59.26
2019-05-25T06:11:25.513Z,59.75
2019-05-25T06:13:55.674Z,59.39
2019-05-25T06:16:25.802Z,59.05
2019-05-25T06:18:55.965Z,59.50
2019-05-25T06:21:26.109Z,58.65
2019-05-25T06:23:56.257Z,59.39
2019-05-25T06:26:26.496Z,60.15
2019-05-25T06:28:56.657Z,60.67
2019-05-25T06:31:26.776Z,60.61
2019-05-25T06:33:57.051Z,60.36
2019-05-25T06:36:27.199Z,59.73
2019-05-25T06:38:57.386Z,59.69
2019-05-25T06:41:27.584Z,59.88
2019-05-25T06:43:57.732Z,59.52
2019-05-25T06:46:27.879Z,59.61
2019-05-25T06:48:58.044Z,59.62
2019-05-25T06:51:28.183Z,59.38
2019-05-25T06:53:58.339Z,59.15
2019-05-25T06:56:28.540Z,59.72
2019-05-25T06:58:58.880Z,59.21
2019-05-25T07:01:29.007Z,59.07
2019-05-25T07:03:59.226Z,59.17
2019-05-25T07:06:29.402Z,59.16
2019-05-25T07:08:59.544Z,58.69
2019-05-25T07:11:29.689Z,59.42
2019-05-25T07:13:59.939Z,59.70
2019-05-25T07:16:30.097Z,58.92
2019-05-25T07:19:00.255Z,58.99
2019-05-25T07:21:30.388Z,57.82
2019-05-25T07:24:00.534Z,58.60
2019-05-25T07:26:30.673Z,58.07
2019-05-25T07:29:00.811Z,58.07
2019-05-25T07:31:30.983Z,56.80
2019-05-25T07:34:01.101Z,55.42
2019-05-25T07:36:31.914Z,53.48
2019-05-25T07:39:03.151Z,53.35
2019-05-25T07:41:33.278Z,53.76
2019-05-25T07:44:03.534Z,53.62
2019-05-25T07:46:33.659Z,53.45
2019-05-25T07:49:03.835Z,52.07
2019-05-25T07:51:35.036Z,51.49
2019-05-25T07:54:05.193Z,51.10
2019-05-25T07:56:35.326Z,52.07
2019-05-25T07:59:05.480Z,50.46
2019-05-25T08:01:35.613Z,50.19
2019-05-25T08:04:05.760Z,49.74
2019-05-25T08:06:35.895Z,49.77
2019-05-25T08:09:07.913Z,50.54
2019-05-25T08:11:38.039Z,50.06
2019-05-25T08:14:08.511Z,51.16
2019-05-25T08:16:38.780Z,50.87
2019-05-25T08:19:09.011Z,50.78
2019-05-25T08:21:39.193Z,51.16
2019-05-25T08:24:11.234Z,50.66
2019-05-25T08:26:41.351Z,50.75
2019-05-25T08:29:11.483Z,50.31
2019-05-25T08:31:41.603Z,50.24
2019-05-25T08:34:11.817Z,50.17
2019-05-25T08:36:41.947Z,50.29
2019-05-25T08:39:12.088Z,50.16
2019-05-25T08:41:45.322Z,50.85
2019-05-25T08:44:14.069Z,50.35
2019-05-25T08:46:44.195Z,50.45
2019-05-25T08:49:14.396Z,50.42
2019-05-25T08:51:44.516Z,50.21
2019-05-25T08:54:14.664Z,49.88
2019-05-25T08:56:44.784Z,49.67
2019-05-25T08:59:14.908Z,49.13
2019-05-25T09:01:45.061Z,49.29
2019-05-25T09:04:15.202Z,49.10
2019-05-25T09:06:45.327Z,47.76
2019-05-25T09:09:15.487Z,47.96
2019-05-25T09:11:45.678Z,47.04
2019-05-25T09:14:15.766Z,47.34
2019-05-25T09:16:45.907Z,47.09
2019-05-25T09:19:16.049Z,48.01
2019-05-25T09:22:01.384Z,47.60
2019-05-25T09:24:18.016Z,47.63
2019-05-25T09:26:48.163Z,47.79
2019-05-25T09:29:18.400Z,48.21
2019-05-25T09:31:49.493Z,48.57
2019-05-25T09:34:19.655Z,49.18
2019-05-25T09:36:49.792Z,49.29
2019-05-25T09:39:19.978Z,49.30
2019-05-25T09:41:50.092Z,48.71
2019-05-25T09:44:20.236Z,48.39
2019-05-25T09:46:50.375Z,48.08
2019-05-25T09:49:20.564Z,48.08
2019-05-25T09:51:50.698Z,48.47
2019-05-25T09:54:20.860Z,48.98
2019-05-25T09:56:50.993Z,49.05
2019-05-25T09:59:21.131Z,49.51
2019-05-25T10:01:51.399Z,49.75
2019-05-25T10:04:21.601Z,50.12
2019-05-25T10:06:51.761Z,50.06
2019-05-25T10:09:21.899Z,50.75
2019-05-25T10:11:52.026Z,50.84
2019-05-25T10:14:22.158Z,51.53
2019-05-25T10:16:52.299Z,51.27
2019-05-25T10:19:22.463Z,51.00
2019-05-25T10:21:52.592Z,49.34
2019-05-25T10:24:22.730Z,49.01
2019-05-25T10:26:52.864Z,49.48
2019-05-25T10:29:35.923Z,49.89
2019-05-25T10:31:54.827Z,49.32
2019-05-25T10:34:24.971Z,49.83
2019-05-25T10:36:55.104Z,49.79
2019-05-25T10:39:25.997Z,49.92
2019-05-25T10:41:56.121Z,49.84
2019-05-25T10:44:26.269Z,48.58
2019-05-25T10:46:56.403Z,47.97
2019-05-25T10:49:26.579Z,47.77
2019-05-25T10:51:56.711Z,47.64
2019-05-25T10:54:26.874Z,47.81
2019-05-25T10:56:56.994Z,47.57
2019-05-25T10:59:27.129Z,48.19
2019-05-25T11:01:57.251Z,47.73
2019-05-25T11:04:27.386Z,48.50
2019-05-25T11:06:57.511Z,47.65
2019-05-25T11:09:27.640Z,46.82
2019-05-25T11:11:57.848Z,47.45
2019-05-25T11:14:29.092Z,47.61
2019-05-25T11:16:59.223Z,47.59
2019-05-25T11:19:29.371Z,46.94
2019-05-25T11:21:59.497Z,47.19
2019-05-25T11:24:29.626Z,45.63
2019-05-25T11:26:59.890Z,44.82
2019-05-25T11:29:29.981Z,44.33
2019-05-25T11:32:04.276Z,44.86
2019-05-25T11:34:31.967Z,44.64
2019-05-25T11:37:02.199Z,44.54
2019-05-25T11:39:32.323Z,44.46
2019-05-25T11:42:02.461Z,44.61
2019-05-25T11:44:32.623Z,44.81
2019-05-25T11:47:02.762Z,45.15
2019-05-25T11:49:32.990Z,45.21
2019-05-25T11:52:03.174Z,44.69
2019-05-25T11:54:33.500Z,45.20
2019-05-25T11:57:03.797Z,45.25
2019-05-25T11:59:33.953Z,44.73
2019-05-25T12:02:04.213Z,45.10
2019-05-25T12:04:34.339Z,45.28
2019-05-25T12:07:04.677Z,44.84
2019-05-25T12:09:34.814Z,44.52
2019-05-25T12:12:04.947Z,44.12
2019-05-25T12:14:35.081Z,44.35
2019-05-25T12:17:05.204Z,44.38
2019-05-25T12:19:35.367Z,44.28
2019-05-25T12:22:05.698Z,44.16
2019-05-25T12:24:35.836Z,44.78
2019-05-25T12:27:05.959Z,44.48
2019-05-25T12:29:36.100Z,44.85
2019-05-25T12:32:06.225Z,44.72
2019-05-25T12:34:36.392Z,44.65
2019-05-25T12:37:06.511Z,44.83
2019-05-25T12:39:36.661Z,45.14
2019-05-25T12:42:06.787Z,45.03
2019-05-25T12:44:37.140Z,45.25
2019-05-25T12:47:07.412Z,45.27
2019-05-25T12:49:50.064Z,45.03
2019-05-25T12:52:09.467Z,45.12
2019-05-25T12:54:39.639Z,45.07
2019-05-25T12:57:09.777Z,44.53
2019-05-25T12:59:39.920Z,44.57
2019-05-25T13:02:10.048Z,44.57
2019-05-25T13:04:40.417Z,44.95
2019-05-25T13:07:10.577Z,45.25
2019-05-25T13:09:40.716Z,44.56
2019-05-25T13:12:10.878Z,44.41
2019-05-25T13:14:40.996Z,44.58
2019-05-25T13:17:11.167Z,44.47
2019-05-25T13:19:41.323Z,44.33
2019-05-25T13:22:11.531Z,45.30
2019-05-25T13:24:41.696Z,45.01
2019-05-25T13:27:11.811Z,44.50
2019-05-25T13:29:41.969Z,44.90
2019-05-25T13:32:12.107Z,45.20
2019-05-25T13:34:43.898Z,44.83
2019-05-25T13:37:17.175Z,45.44
2019-05-25T13:39:46.027Z,45.17
2019-05-25T13:42:16.187Z,45.35
2019-05-25T13:44:46.468Z,45.11
2019-05-25T13:47:16.604Z,44.47
2019-05-25T13:49:46.818Z,43.72
2019-05-25T13:52:16.957Z,45.61
2019-05-25T13:54:47.085Z,44.51
2019-05-25T13:57:17.221Z,43.48
2019-05-25T13:59:47.365Z,44.40
2019-05-25T14:02:17.506Z,44.29
2019-05-25T14:04:47.713Z,43.72
2019-05-25T14:07:17.865Z,43.91
2019-05-25T14:09:48.059Z,42.76
2019-05-25T14:12:18.231Z,43.82
2019-05-25T14:14:48.369Z,43.96
2019-05-25T14:17:18.506Z,42.88
2019-05-25T14:19:48.655Z,42.54
2019-05-25T14:22:18.791Z,43.27
2019-05-25T14:24:48.943Z,43.92
2019-05-25T14:27:19.095Z,43.97
2019-05-25T14:29:49.221Z,44.13
2019-05-25T14:32:19.354Z,43.26
2019-05-25T14:34:49.559Z,44.16
2019-05-25T14:37:19.673Z,44.19
2019-05-25T14:39:49.808Z,43.66
2019-05-25T14:42:20.020Z,44.21
2019-05-25T14:44:50.182Z,44.18
2019-05-25T14:47:20.344Z,43.61
2019-05-25T14:49:52.692Z,44.02
2019-05-25T14:52:22.889Z,43.94
2019-05-25T14:54:53.026Z,44.26
2019-05-25T14:57:23.151Z,44.89
2019-05-25T14:59:53.292Z,44.75
2019-05-25T15:02:23.458Z,44.57
2019-05-25T15:04:54.811Z,45.08
2019-05-25T15:07:25.489Z,45.01
2019-05-25T15:09:55.654Z,44.67
2019-05-25T15:12:25.769Z,45.11
2019-05-25T15:14:55.907Z,45.49
2019-05-25T15:17:26.037Z,44.59
2019-05-25T15:19:56.372Z,45.09
2019-05-25T15:22:26.559Z,45.50
2019-05-25T15:24:56.696Z,45.79
2019-05-25T15:27:26.828Z,45.21
2019-05-25T15:29:56.968Z,45.43
2019-05-25T15:32:27.099Z,45.14
2019-05-25T15:34:57.239Z,45.05
2019-05-25T15:37:27.423Z,44.96
2019-05-25T15:39:57.609Z,44.67
2019-05-25T15:42:27.730Z,45.31
2019-05-25T15:44:57.899Z,45.03
2019-05-25T15:47:28.023Z,44.98
2019-05-25T15:49:58.220Z,43.98
2019-05-25T15:52:28.336Z,44.31
2019-05-25T15:54:58.492Z,44.30
2019-05-25T15:57:28.634Z,43.95
2019-05-25T15:59:58.782Z,44.05
2019-05-25T16:02:36.797Z,44.45
2019-05-25T16:05:01.008Z,44.67
2019-05-25T16:07:32.604Z,44.89
2019-05-25T16:10:02.805Z,44.28
2019-05-25T16:12:32.978Z,44.12
2019-05-25T16:15:03.116Z,44.78
2019-05-25T16:17:33.359Z,43.61
2019-05-25T16:20:03.617Z,43.48
2019-05-25T16:22:34.918Z,44.41
2019-05-25T16:25:05.924Z,44.19
2019-05-25T16:27:37.031Z,43.98
2019-05-25T16:30:07.506Z,44.18
2019-05-25T16:33:09.879Z,44.62
2019-05-25T16:35:09.639Z,44.23
2019-05-25T16:37:40.259Z,43.96
2019-05-25T16:40:10.735Z,44.16
2019-05-25T16:42:40.932Z,44.44
2019-05-25T16:45:11.775Z,44.77
2019-05-25T16:47:41.913Z,45.48
2019-05-25T16:50:14.963Z,45.91
2019-05-25T16:52:44.626Z,46.11
2019-05-25T16:55:15.357Z,46.26
2019-05-25T16:57:45.492Z,46.17
2019-05-25T17:00:17.288Z,46.23
2019-05-25T17:02:47.425Z,46.44
2019-05-25T17:05:17.669Z,46.31
2019-05-25T17:07:47.779Z,46.18
2019-05-25T17:10:18.036Z,46.31
2019-05-25T17:12:48.162Z,47.11
2019-05-25T17:15:18.409Z,47.59
2019-05-25T17:17:48.555Z,46.99
2019-05-25T17:20:19.112Z,46.63
2019-05-25T17:22:49.223Z,46.82
2019-05-25T17:25:19.382Z,47.14
2019-05-25T17:27:49.544Z,47.18
2019-05-25T17:30:35.951Z,47.31
2019-05-25T17:33:07.067Z,47.40
2019-05-25T17:35:37.191Z,47.75
2019-05-25T17:38:07.670Z,47.76
2019-05-25T17:40:38.116Z,48.17
2019-05-25T17:43:08.303Z,48.10
2019-05-25T17:45:38.437Z,48.14
2019-05-25T17:48:08.684Z,48.11
2019-05-25T17:50:38.853Z,48.10
2019-05-25T17:53:08.979Z,48.10
2019-05-25T17:55:39.113Z,48.02
2019-05-25T17:58:09.253Z,47.98
2019-05-25T18:00:46.264Z,47.98
2019-05-25T18:03:16.389Z,47.90
2019-05-25T18:05:47.353Z,48.04
2019-05-25T18:08:17.524Z,47.95
2019-05-25T18:10:55.049Z,47.82
2019-05-25T18:13:19.556Z,47.59
2019-05-25T18:15:49.750Z,47.68
2019-05-25T18:18:19.880Z,47.73
2019-05-25T18:20:50.299Z,47.67
2019-05-25T18:23:20.984Z,47.91
2019-05-25T18:25:51.205Z,47.79
2019-05-25T18:28:21.365Z,47.86
2019-05-25T18:30:51.557Z,47.82
2019-05-25T18:33:22.906Z,48.08
2019-05-25T18:35:53.063Z,48.29
2019-05-25T18:38:23.226Z,48.32
2019-05-25T18:40:53.359Z,48.32
2019-05-25T18:43:23.660Z,48.84
2019-05-25T18:45:53.881Z,48.94
2019-05-25T18:48:24.002Z,49.29
2019-05-25T18:50:54.242Z,50.21
2019-05-25T18:53:24.454Z,50.53
2019-05-25T18:55:54.687Z,51.27
2019-05-25T18:58:24.817Z,51.44
2019-05-25T19:00:55.035Z,52.27
2019-05-25T19:03:25.321Z,52.97
2019-05-25T19:05:55.595Z,53.42
2019-05-25T19:08:25.805Z,54.18
2019-05-25T19:10:55.943Z,54.54
2019-05-25T19:13:26.095Z,54.80
2019-05-25T19:15:56.220Z,56.00
2019-05-25T19:18:26.345Z,55.94
2019-05-25T19:20:56.528Z,56.77
2019-05-25T19:23:26.684Z,57.78
2019-05-25T19:25:56.856Z,58.17
2019-05-25T19:28:26.996Z,57.86
2019-05-25T19:30:58.287Z,58.45
2019-05-25T19:33:28.597Z,59.48
2019-05-25T19:35:58.768Z,60.12
2019-05-25T19:38:29.008Z,60.85
2019-05-25T19:40:59.206Z,61.05
2019-05-25T19:43:29.427Z,60.59
2019-05-25T19:45:59.680Z,61.37
2019-05-25T19:48:29.844Z,60.56
2019-05-25T19:51:01.891Z,61.10
2019-05-25T19:53:32.087Z,61.55
2019-05-25T19:56:02.395Z,62.52
2019-05-25T19:58:32.626Z,62.26
2019-05-25T20:01:02.912Z,63.02
2019-05-25T20:03:33.053Z,63.08
2019-05-25T20:06:03.224Z,63.06
2019-05-25T20:08:33.375Z,62.78
2019-05-25T20:11:03.521Z,62.26
2019-05-25T20:13:33.695Z,62.36
2019-05-25T20:16:03.907Z,62.64
2019-05-25T20:18:34.022Z,62.79
2019-05-25T20:21:04.164Z,63.21
2019-05-25T20:23:34.300Z,63.57
2019-05-25T20:26:04.454Z,64.24
2019-05-25T20:28:34.581Z,64.75
2019-05-25T20:31:06.392Z,65.26
2019-05-25T20:33:36.520Z,65.59
2019-05-25T20:36:06.672Z,65.19
2019-05-25T20:38:36.817Z,65.68
2019-05-25T20:41:06.972Z,64.29
2019-05-25T20:43:37.107Z,63.68
2019-05-25T20:46:07.242Z,62.96
2019-05-25T20:48:37.377Z,63.88
2019-05-25T20:51:07.536Z,63.20
2019-05-25T20:53:37.759Z,63.93
2019-05-25T20:56:07.888Z,64.07
2019-05-25T20:58:39.322Z,63.11
2019-05-25T21:01:09.469Z,62.99
2019-05-25T21:03:39.657Z,62.95
2019-05-25T21:06:10.758Z,63.78
2019-05-25T21:08:40.875Z,63.68
2019-05-25T21:11:11.027Z,63.66
2019-05-25T21:13:41.461Z,63.77
2019-05-25T21:16:11.678Z,64.00
2019-05-25T21:18:41.816Z,63.82
2019-05-25T21:21:11.951Z,64.15
2019-05-25T21:23:42.075Z,64.69
2019-05-25T21:26:12.205Z,64.64
2019-05-25T21:28:42.325Z,64.67
2019-05-25T21:31:12.465Z,64.13
2019-05-25T21:33:42.596Z,64.55
2019-05-25T21:36:14.344Z,64.24
2019-05-25T21:38:44.459Z,64.38
2019-05-25T21:41:14.579Z,65.04
2019-05-25T21:43:44.694Z,64.34
2019-05-25T21:46:14.871Z,64.35
2019-05-25T21:48:44.995Z,64.50
2019-05-25T21:51:15.126Z,64.51
2019-05-25T21:53:45.252Z,64.57
2019-05-25T21:56:15.375Z,64.92
2019-05-25T21:58:45.507Z,64.88
2019-05-25T22:01:15.791Z,64.68
2019-05-25T22:03:45.935Z,63.97
2019-05-25T22:06:24.147Z,63.62
2019-05-25T22:08:47.896Z,63.56
2019-05-25T22:11:18.053Z,62.74
2019-05-25T22:13:48.186Z,63.02
2019-05-25T22:16:18.322Z,62.99
2019-05-25T22:18:48.423Z,63.10
2019-05-25T22:21:18.543Z,63.49
2019-05-25T22:23:48.663Z,62.41
2019-05-25T22:26:18.780Z,62.57
2019-05-25T22:28:48.922Z,62.51
2019-05-25T22:31:19.082Z,62.29
2019-05-25T22:33:49.215Z,62.38
2019-05-25T22:36:19.338Z,62.54
2019-05-25T22:38:49.476Z,62.45
2019-05-25T22:41:20.076Z,62.14
2019-05-25T22:43:50.395Z,62.65
2019-05-25T22:46:20.524Z,62.89
2019-05-25T22:48:50.651Z,62.65
2019-05-25T22:51:20.778Z,63.07
2019-05-25T22:53:50.936Z,63.32
2019-05-25T22:56:21.060Z,63.53
2019-05-25T22:58:51.189Z,63.53
2019-05-25T23:01:21.307Z,63.30
2019-05-25T23:03:51.441Z,63.34
2019-05-25T23:06:21.622Z,63.37
2019-05-25T23:08:52.823Z,64.01
2019-05-25T23:11:22.950Z,63.75
2019-05-25T23:13:53.074Z,63.75
2019-05-25T23:16:23.223Z,63.36
2019-05-25T23:18:53.779Z,63.68
2019-05-25T23:21:23.943Z,63.29
2019-05-25T23:23:54.137Z,63.66
2019-05-25T23:26:24.263Z,63.33
2019-05-25T23:28:55.470Z,63.63
2019-05-25T23:31:25.598Z,64.05
2019-05-25T23:33:55.728Z,64.73
2019-05-25T23:36:26.049Z,64.98
2019-05-25T23:38:56.156Z,64.63
2019-05-25T23:41:26.287Z,64.18
2019-05-25T23:43:59.679Z,63.95
2019-05-25T23:46:28.302Z,63.90
2019-05-25T23:48:58.433Z,64.04
2019-05-25T23:51:28.584Z,63.90
2019-05-25T23:53:58.725Z,64.13
2019-05-25T23:56:28.847Z,64.08
2019-05-25T23:58:58.962Z,63.58
